Time,TemperatureF,DewpointF,PressureIn,WindDirection,WindDirectionDegrees,WindSpeedMPH,WindSpeedGustMPH,Humidity,HourlyPrecipIn,Conditions,Clouds,dailyrainin,SolarRadiationWatts/m^2,SoftwareType,DateUTC
2013-05-06 00:02:00,53.0,52.0,-100.00,WNW,300,3.0,9.0,95,0.00,,,0.00,0.000000,,2013-05-06 05:02:00,
2013-05-06 00:12:00,53.0,52.0,-100.00,WNW,300,3.0,9.0,95,0.00,,,0.00,0.000000,,2013-05-06 05:12:00,
2013-05-06 00:32:00,53.0,52.0,-100.00,West,278,3.0,7.0,96,0.00,,,0.00,0.000000,,2013-05-06 05:32:00,
2013-05-06 00:42:00,53.0,52.0,-100.00,West,278,3.0,7.0,96,0.00,,,0.00,0.000000,,2013-05-06 05:42:00,
2013-05-06 00:52:00,53.0,52.0,-100.00,West,278,3.0,7.0,96,0.00,,,0.00,0.000000,,2013-05-06 05:52:00,
2013-05-06 01:02:00,53.0,52.0,-100.00,West,278,3.0,7.0,96,0.00,,,0.00,0.000000,,2013-05-06 06:02:00,
2013-05-06 01:12:00,53.0,52.0,-100.00,West,278,3.0,7.0,96,0.00,,,0.00,0.000000,,2013-05-06 06:12:00,
2013-05-06 01:42:00,54.0,53.0,-100.00,North,4,4.0,6.0,98,0.00,,,0.00,0.000000,,2013-05-06 06:42:00,
2013-05-06 01:52:00,54.0,53.0,-100.00,North,4,4.0,6.0,98,0.00,,,0.00,0.000000,,2013-05-06 06:52:00,
2013-05-06 02:01:00,54.0,53.0,-100.00,North,4,4.0,6.0,98,0.00,,,0.00,0.000000,,2013-05-06 07:01:00,
2013-05-06 02:11:00,54.0,53.0,-100.00,North,4,4.0,6.0,98,0.00,,,0.00,0.000000,,2013-05-06 07:11:00,
2013-05-06 02:42:00,53.0,52.0,-100.00,NNE,30,6.0,10.0,96,0.00,,,0.00,0.000000,,2013-05-06 07:42:00,
2013-05-06 02:52:00,53.0,52.0,-100.00,NNE,30,6.0,10.0,96,0.00,,,0.00,0.000000,,2013-05-06 07:52:00,
2013-05-06 03:02:00,53.0,52.0,-100.00,NNE,30,6.0,10.0,96,0.00,,,0.00,0.000000,,2013-05-06 08:02:00,
2013-05-06 03:12:00,53.0,52.0,-100.00,NNE,30,6.0,10.0,96,0.00,,,0.00,0.000000,,2013-05-06 08:12:00,
2013-05-06 03:42:00,53.0,51.0,-100.00,NW,326,5.0,11.0,92,0.00,,,0.00,0.000000,,2013-05-06 08:42:00,
2013-05-06 03:52:00,53.0,51.0,-100.00,NW,326,5.0,11.0,92,0.00,,,0.00,0.000000,,2013-05-06 08:52:00,
2013-05-06 04:01:00,53.0,51.0,-100.00,NW,326,5.0,11.0,92,0.00,,,0.00,0.000000,,2013-05-06 09:01:00,
2013-05-06 04:11:00,53.0,51.0,-100.00,NW,326,5.0,11.0,92,0.00,,,0.00,0.000000,,2013-05-06 09:11:00,
2013-05-06 04:43:00,52.0,51.0,-100.00,NNW,336,6.0,11.0,95,0.00,,,0.00,0.000000,,2013-05-06 09:43:00,
2013-05-06 04:53:00,52.0,51.0,-100.00,NNW,336,6.0,11.0,95,0.00,,,0.00,0.000000,,2013-05-06 09:53:00,
2013-05-06 05:02:00,52.0,51.0,-100.00,NNW,336,6.0,11.0,95,0.00,,,0.00,0.000000,,2013-05-06 10:02:00,
2013-05-06 05:12:00,52.0,51.0,-100.00,NNW,336,6.0,11.0,95,0.00,,,0.00,0.000000,,2013-05-06 10:12:00,
2013-05-06 05:42:00,51.0,50.0,-100.00,North,359,4.0,9.0,98,0.02,,,0.02,0.000000,,2013-05-06 10:42:00,
2013-05-06 05:52:00,51.0,50.0,-100.00,North,359,4.0,9.0,98,0.02,,,0.02,0.000000,,2013-05-06 10:52:00,
2013-05-06 06:02:00,51.0,50.0,-100.00,North,359,4.0,9.0,98,0.02,,,0.02,0.000000,,2013-05-06 11:02:00,
2013-05-06 06:12:00,51.0,50.0,-100.00,North,359,4.0,9.0,98,0.02,,,0.02,0.000000,,2013-05-06 11:12:00,
2013-05-06 06:32:00,52.0,52.0,-100.00,North,8,5.0,8.0,99,0.01,,,0.03,2.000000,,2013-05-06 11:32:00,
2013-05-06 06:42:00,52.0,52.0,-100.00,North,8,5.0,8.0,99,0.01,,,0.03,2.000000,,2013-05-06 11:42:00,
2013-05-06 06:52:00,52.0,52.0,-100.00,North,8,5.0,8.0,99,0.01,,,0.03,2.000000,,2013-05-06 11:52:00,
2013-05-06 07:01:00,52.0,52.0,-100.00,North,8,5.0,8.0,99,0.01,,,0.03,2.000000,,2013-05-06 12:01:00,
2013-05-06 07:12:00,52.0,52.0,-100.00,North,8,5.0,8.0,99,0.01,,,0.03,2.000000,,2013-05-06 12:12:00,
2013-05-06 07:42:00,52.0,51.0,-100.00,North,359,4.0,10.0,98,0.00,,,0.03,20.000000,,2013-05-06 12:42:00,
2013-05-06 07:52:00,52.0,51.0,-100.00,North,359,4.0,10.0,98,0.00,,,0.03,20.000000,,2013-05-06 12:52:00,
2013-05-06 08:01:00,52.0,51.0,-100.00,North,359,4.0,10.0,98,0.00,,,0.03,20.000000,,2013-05-06 13:01:00,
2013-05-06 08:11:00,52.0,51.0,-100.00,North,359,4.0,10.0,98,0.00,,,0.03,20.000000,,2013-05-06 13:11:00,
2013-05-06 08:42:00,54.0,53.0,-100.00,NNW,343,5.0,9.0,95,0.00,,,0.03,63.000000,,2013-05-06 13:42:00,
2013-05-06 08:52:00,54.0,53.0,-100.00,NNW,343,5.0,9.0,95,0.00,,,0.03,63.000000,,2013-05-06 13:52:00,
2013-05-06 09:01:00,54.0,53.0,-100.00,NNW,343,5.0,9.0,95,0.00,,,0.03,63.000000,,2013-05-06 14:01:00,
2013-05-06 09:11:00,54.0,53.0,-100.00,NNW,343,5.0,9.0,95,0.00,,,0.03,63.000000,,2013-05-06 14:11:00,
2013-05-06 09:42:00,55.0,53.0,-100.00,NNW,341,5.0,9.0,92,0.00,,,0.03,118.000000,,2013-05-06 14:42:00,
2013-05-06 09:52:00,55.0,53.0,-100.00,NNW,341,5.0,9.0,92,0.00,,,0.03,118.000000,,2013-05-06 14:52:00,
2013-05-06 10:01:00,55.0,53.0,-100.00,NNW,341,5.0,9.0,92,0.00,,,0.03,118.000000,,2013-05-06 15:01:00,
2013-05-06 10:11:00,55.0,53.0,-100.00,NNW,341,5.0,9.0,92,0.00,,,0.03,118.000000,,2013-05-06 15:11:00,
2013-05-06 10:43:00,55.0,53.0,-100.00,NE,38,3.0,7.0,94,0.01,,,0.04,72.000000,,2013-05-06 15:43:00,
2013-05-06 10:53:00,55.0,53.0,-100.00,NE,38,3.0,7.0,94,0.01,,,0.04,72.000000,,2013-05-06 15:53:00,
2013-05-06 11:03:00,55.0,53.0,-100.00,NE,38,3.0,7.0,94,0.01,,,0.04,72.000000,,2013-05-06 16:03:00,
2013-05-06 11:13:00,55.0,53.0,-100.00,NE,38,3.0,7.0,94,0.01,,,0.04,72.000000,,2013-05-06 16:13:00,
2013-05-06 11:42:00,56.0,55.0,-100.00,East,94,3.0,7.0,95,0.08,,,0.12,106.000000,,2013-05-06 16:42:00,
2013-05-06 11:52:00,56.0,55.0,-100.00,East,94,3.0,7.0,95,0.08,,,0.12,106.000000,,2013-05-06 16:52:00,
2013-05-06 12:03:00,56.0,55.0,-100.00,East,94,3.0,7.0,95,0.08,,,0.12,106.000000,,2013-05-06 17:03:00,
2013-05-06 12:12:00,56.0,55.0,-100.00,East,94,3.0,7.0,95,0.08,,,0.12,106.000000,,2013-05-06 17:12:00,
2013-05-06 12:42:00,61.0,54.0,-100.00,NE,53,5.0,9.0,78,0.00,,,0.12,493.000000,,2013-05-06 17:42:00,
2013-05-06 12:52:00,61.0,54.0,-100.00,NE,53,5.0,9.0,78,0.00,,,0.12,493.000000,,2013-05-06 17:52:00,
2013-05-06 13:01:00,61.0,54.0,-100.00,NE,53,5.0,9.0,78,0.00,,,0.12,493.000000,,2013-05-06 18:01:00,
2013-05-06 13:12:00,61.0,54.0,-100.00,NE,53,5.0,9.0,78,0.00,,,0.12,493.000000,,2013-05-06 18:12:00,
2013-05-06 13:43:00,67.0,55.0,-100.00,ENE,59,4.0,9.0,66,0.00,,,0.12,553.000000,,2013-05-06 18:43:00,
2013-05-06 13:52:00,67.0,55.0,-100.00,ENE,59,4.0,9.0,66,0.00,,,0.12,553.000000,,2013-05-06 18:52:00,
2013-05-06 14:01:00,67.0,55.0,-100.00,ENE,59,4.0,9.0,66,0.00,,,0.12,553.000000,,2013-05-06 19:01:00,
2013-05-06 14:11:00,67.0,55.0,-100.00,ENE,59,4.0,9.0,66,0.00,,,0.12,553.000000,,2013-05-06 19:11:00,
2013-05-06 14:42:00,67.0,53.0,-100.00,NE,49,8.0,12.0,61,0.00,,,0.12,610.000000,,2013-05-06 19:42:00,
2013-05-06 14:52:00,67.0,53.0,-100.00,NE,49,8.0,12.0,61,0.00,,,0.12,610.000000,,2013-05-06 19:52:00,
2013-05-06 15:02:00,67.0,53.0,-100.00,NE,49,8.0,12.0,61,0.00,,,0.12,610.000000,,2013-05-06 20:02:00,
2013-05-06 15:11:00,67.0,53.0,-100.00,NE,49,8.0,12.0,61,0.00,,,0.12,610.000000,,2013-05-06 20:11:00,
2013-05-06 15:42:00,68.0,50.0,-100.00,ENE,59,7.0,16.0,52,0.00,,,0.12,625.000000,,2013-05-06 20:42:00,
2013-05-06 15:52:00,68.0,50.0,-100.00,ENE,59,7.0,16.0,52,0.00,,,0.12,625.000000,,2013-05-06 20:52:00,
2013-05-06 16:01:00,68.0,50.0,-100.00,ENE,59,7.0,16.0,52,0.00,,,0.12,625.000000,,2013-05-06 21:01:00,
2013-05-06 16:11:00,68.0,50.0,-100.00,ENE,59,7.0,16.0,52,0.00,,,0.12,625.000000,,2013-05-06 21:11:00,
2013-05-06 16:33:00,68.0,50.0,-100.00,NE,52,7.0,14.0,52,0.00,,,0.12,484.000000,,2013-05-06 21:33:00,
2013-05-06 16:43:00,68.0,50.0,-100.00,NE,52,7.0,14.0,52,0.00,,,0.12,484.000000,,2013-05-06 21:43:00,
2013-05-06 16:53:00,68.0,50.0,-100.00,NE,52,7.0,14.0,52,0.00,,,0.12,484.000000,,2013-05-06 21:53:00,
2013-05-06 17:03:00,68.0,50.0,-100.00,NE,52,7.0,14.0,52,0.00,,,0.12,484.000000,,2013-05-06 22:03:00,
2013-05-06 17:12:00,68.0,50.0,-100.00,NE,52,7.0,14.0,52,0.00,,,0.12,484.000000,,2013-05-06 22:12:00,
2013-05-06 17:45:00,67.0,49.0,-100.00,NNE,25,5.0,11.0,52,0.00,,,0.12,282.000000,,2013-05-06 22:45:00,
2013-05-06 17:52:00,67.0,49.0,-100.00,NNE,25,5.0,11.0,52,0.00,,,0.12,282.000000,,2013-05-06 22:52:00,
2013-05-06 18:03:00,67.0,49.0,-100.00,NNE,25,5.0,11.0,52,0.00,,,0.12,282.000000,,2013-05-06 23:03:00,
2013-05-06 18:12:00,67.0,49.0,-100.00,NNE,25,5.0,11.0,52,0.00,,,0.12,282.000000,,2013-05-06 23:12:00,
2013-05-06 18:42:00,65.0,50.0,-100.00,ENE,77,2.0,5.0,59,0.00,,,0.12,86.000000,,2013-05-06 23:42:00,
2013-05-06 18:52:00,65.0,50.0,-100.00,ENE,77,2.0,5.0,59,0.00,,,0.12,86.000000,,2013-05-06 23:52:00,
2013-05-06 19:01:00,65.0,50.0,-100.00,ENE,77,2.0,5.0,59,0.00,,,0.12,86.000000,,2013-05-07 00:01:00,
2013-05-06 19:11:00,65.0,50.0,-100.00,ENE,77,2.0,5.0,59,0.00,,,0.12,86.000000,,2013-05-07 00:11:00,
2013-05-06 19:42:00,59.0,56.0,-100.00,SSW,193,1.0,6.0,91,0.03,,,0.15,43.000000,,2013-05-07 00:42:00,
2013-05-06 19:52:00,59.0,56.0,-100.00,SSW,193,1.0,6.0,91,0.03,,,0.15,43.000000,,2013-05-07 00:52:00,
2013-05-06 20:01:00,59.0,56.0,-100.00,SSW,193,1.0,6.0,91,0.03,,,0.15,43.000000,,2013-05-07 01:01:00,
2013-05-06 20:11:00,59.0,56.0,-100.00,SSW,193,1.0,6.0,91,0.03,,,0.15,43.000000,,2013-05-07 01:11:00,
2013-05-06 20:42:00,57.0,56.0,-100.00,SSW,210,1.0,4.0,98,0.01,,,0.16,7.000000,,2013-05-07 01:42:00,
2013-05-06 20:53:00,57.0,56.0,-100.00,SSW,210,1.0,4.0,98,0.01,,,0.16,7.000000,,2013-05-07 01:53:00,
2013-05-06 21:02:00,57.0,56.0,-100.00,SSW,210,1.0,4.0,98,0.01,,,0.16,7.000000,,2013-05-07 02:02:00,
2013-05-06 21:11:00,57.0,56.0,-100.00,SSW,210,1.0,4.0,98,0.01,,,0.16,7.000000,,2013-05-07 02:11:00,
2013-05-06 21:32:00,55.0,53.0,-100.00,SE,131,3.0,16.0,94,0.02,,,0.18,0.000000,,2013-05-07 02:32:00,
2013-05-06 21:42:00,55.0,53.0,-100.00,SE,131,3.0,16.0,94,0.02,,,0.18,0.000000,,2013-05-07 02:42:00,
2013-05-06 21:52:00,55.0,53.0,-100.00,SE,131,3.0,16.0,94,0.02,,,0.18,0.000000,,2013-05-07 02:52:00,
2013-05-06 22:01:00,55.0,53.0,-100.00,SE,131,3.0,16.0,94,0.02,,,0.18,0.000000,,2013-05-07 03:01:00,
2013-05-06 22:11:00,55.0,53.0,-100.00,SE,131,3.0,16.0,94,0.02,,,0.18,0.000000,,2013-05-07 03:11:00,
2013-05-06 22:43:00,54.0,54.0,-100.00,WSW,250,3.0,5.0,99,0.08,,,0.26,0.000000,,2013-05-07 03:43:00,
2013-05-06 22:53:00,54.0,54.0,-100.00,WSW,250,3.0,5.0,99,0.08,,,0.26,0.000000,,2013-05-07 03:53:00,
2013-05-06 23:03:00,54.0,54.0,-100.00,WSW,250,3.0,5.0,99,0.08,,,0.26,0.000000,,2013-05-07 04:03:00,
2013-05-06 23:12:00,54.0,54.0,-100.00,WSW,250,3.0,5.0,99,0.08,,,0.26,0.000000,,2013-05-07 04:12:00,
2013-05-06 23:42:00,53.0,53.0,-100.00,WNW,303,2.0,3.0,100,0.00,,,0.26,0.000000,,2013-05-07 04:42:00,
2013-05-06 23:53:00,53.0,53.0,-100.00,WNW,303,2.0,3.0,100,0.00,,,0.26,0.000000,,2013-05-07 04:53:00,